createdAt,value
2022-12-16T00:00:04.144Z,992.39
2022-12-16T00:01:04.216Z,992.44
2022-12-16T00:02:04.201Z,992.46
2022-12-16T00:03:04.197Z,992.45
2022-12-16T00:04:04.184Z,992.51
2022-12-16T00:05:04.193Z,992.48
2022-12-16T00:06:04.203Z,992.52
2022-12-16T00:07:04.238Z,992.53
2022-12-16T00:08:04.222Z,992.54
2022-12-16T00:09:04.240Z,992.6
2022-12-16T00:10:04.248Z,992.61
2022-12-16T00:11:04.261Z,992.59
2022-12-16T00:12:04.262Z,992.6
2022-12-16T00:13:08.856Z,992.58
2022-12-16T00:14:04.285Z,992.58
2022-12-16T00:15:04.300Z,992.59
2022-12-16T00:16:04.345Z,992.61
2022-12-16T00:17:04.321Z,992.66
2022-12-16T00:18:04.328Z,992.64
2022-12-16T00:19:04.343Z,992.63
2022-12-16T00:20:04.349Z,992.64
2022-12-16T00:21:04.364Z,992.65
2022-12-16T00:22:04.375Z,992.59
2022-12-16T00:23:04.408Z,992.61
2022-12-16T00:24:04.395Z,992.55
2022-12-16T00:25:04.411Z,992.55
2022-12-16T00:26:04.420Z,992.57
2022-12-16T00:27:04.425Z,992.53
2022-12-16T00:28:04.435Z,992.61
2022-12-16T00:29:04.450Z,992.59
2022-12-16T00:30:04.456Z,992.51
2022-12-16T00:31:04.549Z,992.55
2022-12-16T00:32:04.545Z,992.59
2022-12-16T00:33:04.493Z,992.61
2022-12-16T00:34:04.499Z,992.61
2022-12-16T00:35:04.512Z,992.62
2022-12-16T00:36:04.520Z,992.64
2022-12-16T00:37:04.532Z,992.61
2022-12-16T00:38:04.544Z,992.66
2022-12-16T00:39:04.674Z,992.67
2022-12-16T00:40:04.571Z,992.68
2022-12-16T00:41:04.572Z,992.74
2022-12-16T00:42:04.586Z,992.71
2022-12-16T00:43:04.596Z,992.71
2022-12-16T00:44:04.603Z,992.69
2022-12-16T00:45:04.614Z,992.71
2022-12-16T00:46:04.708Z,992.7
2022-12-16T00:47:04.634Z,992.7
2022-12-16T00:48:04.651Z,992.68
2022-12-16T00:49:04.654Z,992.75
2022-12-16T00:50:04.669Z,992.72
2022-12-16T00:51:04.677Z,992.77
2022-12-16T00:52:04.687Z,992.76
2022-12-16T00:53:04.947Z,992.74
2022-12-16T00:54:04.709Z,992.75
2022-12-16T00:55:04.744Z,992.78
2022-12-16T00:56:04.729Z,992.74
2022-12-16T00:57:04.748Z,992.75
2022-12-16T00:58:05.001Z,992.68
2022-12-16T00:59:04.758Z,992.68
2022-12-16T01:00:04.771Z,992.65
2022-12-16T01:01:04.860Z,992.64
2022-12-16T01:02:04.997Z,992.69
2022-12-16T01:03:05.072Z,992.66
2022-12-16T01:04:04.816Z,992.67
2022-12-16T01:05:04.827Z,992.64
2022-12-16T01:06:04.829Z,992.63
2022-12-16T01:07:04.843Z,992.63
2022-12-16T01:08:05.011Z,992.66
2022-12-16T01:09:04.862Z,992.61
2022-12-16T01:10:04.872Z,992.59
2022-12-16T01:11:04.908Z,992.6
2022-12-16T01:12:04.900Z,992.59
2022-12-16T01:13:05.059Z,992.58
2022-12-16T01:14:04.920Z,992.62
2022-12-16T01:15:04.926Z,992.64
2022-12-16T01:16:04.987Z,992.62
2022-12-16T01:17:04.948Z,992.64
2022-12-16T01:18:05.011Z,992.63
2022-12-16T01:19:04.971Z,992.65
2022-12-16T01:20:04.979Z,992.67
2022-12-16T01:21:04.991Z,992.68
2022-12-16T01:22:05.000Z,992.67
2022-12-16T01:23:05.064Z,992.67
2022-12-16T01:24:05.021Z,992.71
2022-12-16T01:25:05.035Z,992.71
2022-12-16T01:26:05.042Z,992.72
2022-12-16T01:27:05.079Z,992.73
2022-12-16T01:28:05.059Z,992.71
2022-12-16T01:29:05.073Z,992.77
2022-12-16T01:30:05.083Z,992.78
2022-12-16T01:31:05.103Z,992.83
2022-12-16T01:32:05.174Z,992.75
2022-12-16T01:33:05.165Z,992.86
2022-12-16T01:34:05.134Z,992.85
2022-12-16T01:35:10.857Z,992.81
2022-12-16T01:36:05.143Z,992.82
2022-12-16T01:37:05.158Z,992.8
2022-12-16T01:38:05.169Z,992.8
2022-12-16T01:39:05.179Z,992.79
2022-12-16T01:40:05.188Z,992.81
2022-12-16T01:41:05.200Z,992.86
2022-12-16T01:42:05.211Z,992.86
2022-12-16T01:43:05.253Z,992.91
2022-12-16T01:44:05.233Z,992.84
2022-12-16T01:45:05.252Z,992.89
2022-12-16T01:46:05.293Z,992.88
2022-12-16T01:47:05.261Z,992.87
2022-12-16T01:48:05.270Z,992.82
2022-12-16T01:49:05.283Z,992.8
2022-12-16T01:50:05.294Z,992.82
2022-12-16T01:51:05.302Z,992.86
2022-12-16T01:52:05.317Z,992.83
2022-12-16T01:53:05.320Z,992.8
2022-12-16T01:54:05.338Z,992.81
2022-12-16T01:55:05.344Z,992.84
2022-12-16T01:56:05.356Z,992.87
2022-12-16T01:57:05.371Z,992.86
2022-12-16T01:58:05.372Z,992.84
2022-12-16T01:59:05.414Z,992.86
2022-12-16T02:00:05.405Z,992.89
2022-12-16T02:01:05.495Z,992.89
2022-12-16T02:02:05.638Z,992.92
2022-12-16T02:03:05.553Z,992.9
2022-12-16T02:04:05.445Z,992.86
2022-12-16T02:05:05.447Z,992.87
2022-12-16T02:06:05.459Z,992.85
2022-12-16T02:07:05.468Z,992.89
2022-12-16T02:08:05.475Z,992.87
2022-12-16T02:09:05.488Z,992.89
2022-12-16T02:10:05.511Z,992.87
2022-12-16T02:11:05.511Z,992.86
2022-12-16T02:12:05.523Z,992.91
2022-12-16T02:13:05.532Z,992.91
2022-12-16T02:14:05.541Z,992.85
2022-12-16T02:15:05.578Z,992.92
2022-12-16T02:16:05.564Z,992.91
2022-12-16T02:17:05.608Z,992.88
2022-12-16T02:18:05.579Z,992.87
2022-12-16T02:19:05.589Z,992.86
2022-12-16T02:20:05.606Z,992.92
2022-12-16T02:21:05.614Z,992.89
2022-12-16T02:22:05.628Z,992.94
2022-12-16T02:23:05.630Z,992.9
2022-12-16T02:24:05.646Z,992.88
2022-12-16T02:25:05.656Z,992.89
2022-12-16T02:26:05.669Z,992.82
2022-12-16T02:27:05.674Z,992.84
2022-12-16T02:28:05.681Z,992.86
2022-12-16T02:29:05.700Z,992.89
2022-12-16T02:30:05.709Z,992.88
2022-12-16T02:31:05.812Z,992.86
2022-12-16T02:32:05.729Z,992.85
2022-12-16T02:33:05.733Z,992.85
2022-12-16T02:34:05.747Z,992.89
2022-12-16T02:35:05.761Z,992.87
2022-12-16T02:36:05.772Z,992.89
2022-12-16T02:37:05.780Z,992.86
2022-12-16T02:38:05.785Z,992.88
2022-12-16T02:39:05.802Z,992.88
2022-12-16T02:40:05.810Z,992.9
2022-12-16T02:41:05.825Z,992.91
2022-12-16T02:42:05.833Z,992.91
2022-12-16T02:43:05.838Z,992.9
2022-12-16T02:44:05.856Z,992.92
2022-12-16T02:45:05.866Z,992.92
2022-12-16T02:46:05.922Z,992.88
2022-12-16T02:47:05.913Z,992.87
2022-12-16T02:48:05.887Z,992.88
2022-12-16T02:49:05.909Z,992.84
2022-12-16T02:50:05.913Z,992.85
2022-12-16T02:51:05.925Z,992.85
2022-12-16T02:52:05.932Z,992.84
2022-12-16T02:53:06.497Z,992.85
2022-12-16T02:54:05.955Z,992.8
2022-12-16T02:55:05.968Z,992.84
2022-12-16T02:56:05.977Z,992.81
2022-12-16T02:57:05.988Z,992.87
2022-12-16T02:58:05.989Z,992.87
2022-12-16T02:59:06.009Z,992.85
2022-12-16T03:00:06.022Z,992.81
2022-12-16T03:01:06.093Z,992.84
2022-12-16T03:02:06.222Z,992.85
2022-12-16T03:03:06.240Z,992.85
2022-12-16T03:04:06.060Z,992.85
2022-12-16T03:05:06.073Z,992.86
2022-12-16T03:06:06.082Z,992.85
2022-12-16T03:07:06.089Z,992.86
2022-12-16T03:08:06.096Z,992.88
2022-12-16T03:09:06.110Z,992.83
2022-12-16T03:10:06.120Z,992.83
2022-12-16T03:11:06.132Z,992.87
2022-12-16T03:12:06.141Z,992.87
2022-12-16T03:13:06.150Z,992.82
2022-12-16T03:14:06.161Z,992.86
2022-12-16T03:15:06.171Z,992.82
2022-12-16T03:16:06.185Z,992.85
2022-12-16T03:17:06.258Z,992.82
2022-12-16T03:18:06.200Z,992.8
2022-12-16T03:19:06.248Z,992.83
2022-12-16T03:20:06.221Z,992.79
2022-12-16T03:21:06.244Z,992.84
2022-12-16T03:22:06.245Z,992.84
2022-12-16T03:23:06.255Z,992.84
2022-12-16T03:24:06.265Z,992.85
2022-12-16T03:25:06.274Z,992.88
2022-12-16T03:26:06.287Z,992.86
2022-12-16T03:27:06.295Z,992.82
2022-12-16T03:28:06.308Z,992.83
2022-12-16T03:29:06.313Z,992.81
2022-12-16T03:30:06.329Z,992.86
2022-12-16T03:31:06.410Z,992.82
2022-12-16T03:32:06.352Z,992.85
2022-12-16T03:33:06.356Z,992.84
2022-12-16T03:34:06.369Z,992.83
2022-12-16T03:35:06.461Z,992.79
2022-12-16T03:36:06.389Z,992.84
2022-12-16T03:37:06.401Z,992.85
2022-12-16T03:38:06.411Z,992.89
2022-12-16T03:39:06.420Z,992.88
2022-12-16T03:40:06.431Z,992.87
2022-12-16T03:41:06.439Z,992.86
2022-12-16T03:42:06.451Z,992.92
2022-12-16T03:43:06.460Z,992.93
2022-12-16T03:44:06.472Z,992.93
2022-12-16T03:45:06.480Z,992.94
2022-12-16T03:46:06.587Z,992.89
2022-12-16T03:47:06.506Z,992.9
2022-12-16T03:48:06.524Z,992.91
2022-12-16T03:49:06.521Z,992.91
2022-12-16T03:50:06.532Z,992.91
2022-12-16T03:51:06.570Z,992.92
2022-12-16T03:52:06.553Z,992.96
2022-12-16T03:53:06.970Z,992.97
2022-12-16T03:54:06.574Z,993.01
2022-12-16T03:55:06.585Z,993.03
2022-12-16T03:56:06.600Z,993.02
2022-12-16T03:57:10.455Z,993.03
2022-12-16T03:58:06.613Z,993.02
2022-12-16T03:59:06.629Z,993.07
2022-12-16T04:00:06.636Z,993.05
2022-12-16T04:01:06.647Z,993.05
2022-12-16T04:02:06.956Z,993.05
2022-12-16T04:03:06.865Z,993.05
2022-12-16T04:04:06.740Z,993.08
2022-12-16T04:05:06.684Z,993.05
2022-12-16T04:06:06.698Z,993.06
2022-12-16T04:07:06.736Z,993.07
2022-12-16T04:08:06.717Z,993.05
2022-12-16T04:09:06.727Z,993.08
2022-12-16T04:10:06.736Z,993.07
2022-12-16T04:11:06.751Z,993.05
2022-12-16T04:12:06.758Z,993.04
2022-12-16T04:13:06.772Z,993.05
2022-12-16T04:14:06.780Z,993.07
2022-12-16T04:15:06.790Z,993.06
2022-12-16T04:16:06.819Z,993.1
2022-12-16T04:17:06.809Z,993.08
2022-12-16T04:18:06.820Z,993.07
2022-12-16T04:19:06.833Z,993.09
2022-12-16T04:20:06.839Z,993.1
2022-12-16T04:21:06.850Z,993.11
2022-12-16T04:22:06.859Z,993.14
2022-12-16T04:23:06.906Z,993.17
2022-12-16T04:24:06.885Z,993.18
2022-12-16T04:25:06.890Z,993.13
2022-12-16T04:26:06.900Z,993.13
2022-12-16T04:27:11.864Z,993.1
2022-12-16T04:28:06.920Z,993.12
2022-12-16T04:29:06.935Z,993.11
2022-12-16T04:30:06.942Z,993.12
2022-12-16T04:31:07.003Z,993.15
2022-12-16T04:32:06.960Z,993.12
2022-12-16T04:33:06.977Z,993.16
2022-12-16T04:34:06.981Z,993.17
2022-12-16T04:35:06.994Z,993.19
2022-12-16T04:36:07.004Z,993.2
2022-12-16T04:37:07.017Z,993.18
2022-12-16T04:38:07.021Z,993.22
2022-12-16T04:39:07.062Z,993.23
2022-12-16T04:40:07.044Z,993.23
2022-12-16T04:41:07.056Z,993.29
2022-12-16T04:42:07.064Z,993.28
2022-12-16T04:43:07.076Z,993.3
2022-12-16T04:44:07.083Z,993.31
2022-12-16T04:45:07.096Z,993.3
2022-12-16T04:46:07.131Z,993.3
2022-12-16T04:47:07.116Z,993.3
2022-12-16T04:48:07.124Z,993.35
2022-12-16T04:49:07.140Z,993.4
2022-12-16T04:50:07.144Z,993.38
2022-12-16T04:51:07.161Z,993.42
2022-12-16T04:52:07.166Z,993.41
2022-12-16T04:53:07.472Z,993.38
2022-12-16T04:54:07.184Z,993.37
2022-12-16T04:55:07.362Z,993.41
2022-12-16T04:56:07.208Z,993.42
2022-12-16T04:57:07.220Z,993.43
2022-12-16T04:58:07.227Z,993.46
2022-12-16T04:59:07.243Z,993.4
2022-12-16T05:00:07.245Z,993.43
2022-12-16T05:01:07.265Z,993.5
2022-12-16T05:02:07.355Z,993.47
2022-12-16T05:03:07.331Z,993.52
2022-12-16T05:04:07.327Z,993.53
2022-12-16T05:05:07.299Z,993.53
2022-12-16T05:06:07.314Z,993.54
2022-12-16T05:07:07.319Z,993.53
2022-12-16T05:08:07.326Z,993.56
2022-12-16T05:09:07.339Z,993.53
2022-12-16T05:10:07.352Z,993.52
2022-12-16T05:11:07.382Z,993.54
2022-12-16T05:12:07.566Z,993.56
2022-12-16T05:13:07.375Z,993.58
2022-12-16T05:14:07.393Z,993.58
2022-12-16T05:15:07.397Z,993.56
2022-12-16T05:16:07.429Z,993.57
2022-12-16T05:17:07.417Z,993.58
2022-12-16T05:18:07.433Z,993.54
2022-12-16T05:19:07.439Z,993.62
2022-12-16T05:20:07.458Z,993.6
2022-12-16T05:21:07.462Z,993.52
2022-12-16T05:22:07.472Z,993.56
2022-12-16T05:23:07.485Z,993.54
2022-12-16T05:24:07.491Z,993.58
2022-12-16T05:25:07.503Z,993.56
2022-12-16T05:26:07.513Z,993.57
2022-12-16T05:27:07.550Z,993.6
2022-12-16T05:28:07.536Z,993.61
2022-12-16T05:29:07.543Z,993.61
2022-12-16T05:30:07.554Z,993.63
2022-12-16T05:31:07.616Z,993.64
2022-12-16T05:32:07.576Z,993.7
2022-12-16T05:33:07.580Z,993.65
2022-12-16T05:34:07.599Z,993.65
2022-12-16T05:35:07.603Z,993.71
2022-12-16T05:36:07.619Z,993.69
2022-12-16T05:37:07.626Z,993.74
2022-12-16T05:38:07.631Z,993.74
2022-12-16T05:39:07.644Z,993.8
2022-12-16T05:40:07.658Z,993.78
2022-12-16T05:41:07.666Z,993.86
2022-12-16T05:42:07.680Z,993.84
2022-12-16T05:43:10.891Z,993.88
2022-12-16T05:44:07.696Z,993.89
2022-12-16T05:45:07.706Z,993.92
2022-12-16T05:46:07.840Z,993.88
2022-12-16T05:47:07.832Z,993.9
2022-12-16T05:48:07.734Z,993.91
2022-12-16T05:49:07.802Z,993.84
2022-12-16T05:50:07.761Z,993.93
2022-12-16T05:51:07.768Z,993.9
2022-12-16T05:52:07.781Z,993.93
2022-12-16T05:53:08.135Z,993.9
2022-12-16T05:54:07.889Z,993.91
2022-12-16T05:55:07.807Z,993.91
2022-12-16T05:56:07.818Z,993.93
2022-12-16T05:57:07.831Z,993.98
2022-12-16T05:58:07.840Z,994.02
2022-12-16T05:59:07.881Z,994.05
2022-12-16T06:00:07.862Z,994.07
2022-12-16T06:01:07.875Z,994.04
2022-12-16T06:02:07.946Z,994.04
2022-12-16T06:03:07.992Z,994.07
2022-12-16T06:04:09.767Z,994.1
2022-12-16T06:05:07.919Z,994.08
2022-12-16T06:06:07.920Z,994.12
2022-12-16T06:07:07.934Z,994.15
2022-12-16T06:08:07.940Z,994.16
2022-12-16T06:09:07.956Z,994.18
2022-12-16T06:10:07.960Z,994.18
2022-12-16T06:11:08.023Z,994.19
2022-12-16T06:12:07.986Z,994.19
2022-12-16T06:13:07.996Z,994.2
2022-12-16T06:14:08.001Z,994.18
2022-12-16T06:15:08.097Z,994.19
2022-12-16T06:16:09.018Z,994.2
2022-12-16T06:17:08.036Z,994.22
2022-12-16T06:18:08.045Z,994.16
2022-12-16T06:19:08.057Z,994.23
2022-12-16T06:20:08.067Z,994.23
2022-12-16T06:21:08.077Z,994.29
2022-12-16T06:22:08.085Z,994.28
2022-12-16T06:23:08.094Z,994.27
2022-12-16T06:24:08.103Z,994.31
2022-12-16T06:25:08.117Z,994.27
2022-12-16T06:26:08.124Z,994.26
2022-12-16T06:27:08.140Z,994.27
2022-12-16T06:28:08.141Z,994.3
2022-12-16T06:29:08.156Z,994.34
2022-12-16T06:30:08.166Z,994.37
2022-12-16T06:31:08.312Z,994.41
2022-12-16T06:32:08.189Z,994.42
2022-12-16T06:33:08.197Z,994.43
2022-12-16T06:34:08.207Z,994.48
2022-12-16T06:35:08.217Z,994.5
2022-12-16T06:36:08.224Z,994.47
2022-12-16T06:37:08.237Z,994.52
2022-12-16T06:38:08.247Z,994.56
2022-12-16T06:39:08.259Z,994.55
2022-12-16T06:40:08.268Z,994.52
2022-12-16T06:41:08.277Z,994.59
2022-12-16T06:42:08.288Z,994.62
2022-12-16T06:43:08.301Z,994.64
2022-12-16T06:44:08.308Z,994.7
2022-12-16T06:45:08.328Z,994.71
2022-12-16T06:46:08.380Z,994.7
2022-12-16T06:47:08.365Z,994.72
2022-12-16T06:48:08.352Z,994.74
2022-12-16T06:49:08.361Z,994.73
2022-12-16T06:50:08.368Z,994.77
2022-12-16T06:51:08.379Z,994.79
2022-12-16T06:52:08.391Z,994.77
2022-12-16T06:53:08.447Z,994.78
2022-12-16T06:54:08.412Z,994.81
2022-12-16T06:55:08.419Z,994.84
2022-12-16T06:56:08.435Z,994.85
2022-12-16T06:57:08.439Z,994.85
2022-12-16T06:58:10.119Z,994.89
2022-12-16T06:59:08.460Z,994.89
2022-12-16T07:00:08.499Z,994.9
2022-12-16T07:01:08.510Z,994.93
2022-12-16T07:02:08.584Z,994.97
2022-12-16T07:03:08.598Z,994.94
2022-12-16T07:04:08.516Z,994.97
2022-12-16T07:05:08.521Z,995.02
2022-12-16T07:06:08.535Z,995.01
2022-12-16T07:07:08.540Z,995.04
2022-12-16T07:08:08.552Z,994.99
2022-12-16T07:09:08.564Z,995.04
2022-12-16T07:10:08.574Z,995.09
2022-12-16T07:11:16.461Z,995.06
2022-12-16T07:12:08.593Z,995.1
2022-12-16T07:13:08.600Z,995.09
2022-12-16T07:14:08.614Z,995.09
2022-12-16T07:15:08.619Z,995.11
2022-12-16T07:16:08.684Z,995.11
2022-12-16T07:17:12.367Z,995.17
2022-12-16T07:18:08.650Z,995.22
2022-12-16T07:19:08.692Z,995.19
2022-12-16T07:20:08.677Z,995.22
2022-12-16T07:21:08.682Z,995.24
2022-12-16T07:22:08.695Z,995.31
2022-12-16T07:23:13.264Z,995.29
2022-12-16T07:24:08.730Z,995.34
2022-12-16T07:25:08.721Z,995.33
2022-12-16T07:26:08.731Z,995.34
2022-12-16T07:27:08.744Z,995.39
2022-12-16T07:28:13.776Z,995.42
2022-12-16T07:29:08.762Z,995.37
2022-12-16T07:30:08.775Z,995.36
2022-12-16T07:31:08.785Z,995.39
2022-12-16T07:32:08.880Z,995.36
2022-12-16T07:33:08.804Z,995.39
2022-12-16T07:34:08.818Z,995.39
2022-12-16T07:35:08.847Z,995.43
2022-12-16T07:36:08.832Z,995.46
2022-12-16T07:37:08.842Z,995.45
2022-12-16T07:38:08.853Z,995.45
2022-12-16T07:39:08.861Z,995.49
2022-12-16T07:40:08.871Z,995.52
2022-12-16T07:41:08.886Z,995.49
2022-12-16T07:42:08.892Z,995.55
2022-12-16T07:43:08.903Z,995.55
2022-12-16T07:44:08.915Z,995.54
2022-12-16T07:45:08.923Z,995.58
2022-12-16T07:46:08.988Z,995.57
2022-12-16T07:47:08.944Z,995.62
2022-12-16T07:48:08.950Z,995.61
2022-12-16T07:49:08.967Z,995.61
2022-12-16T07:50:08.970Z,995.61
2022-12-16T07:51:09.011Z,995.63
2022-12-16T07:52:08.990Z,995.69
2022-12-16T07:53:09.504Z,995.71
2022-12-16T07:54:09.012Z,995.75
2022-12-16T07:55:09.024Z,995.76
2022-12-16T07:56:09.032Z,995.79
2022-12-16T07:57:09.044Z,995.82
2022-12-16T07:58:09.053Z,995.85
2022-12-16T07:59:09.066Z,995.88
2022-12-16T08:00:09.073Z,995.88
2022-12-16T08:49:24.082Z,996.64
2022-12-16T08:50:23.960Z,996.65
2022-12-16T08:51:23.971Z,996.61
2022-12-16T08:52:23.981Z,996.61
2022-12-16T08:53:23.988Z,996.61
2022-12-16T08:54:24.496Z,996.62
2022-12-16T08:55:27.917Z,996.61
2022-12-16T08:56:24.021Z,996.62
2022-12-16T08:57:24.032Z,996.61
2022-12-16T08:58:24.043Z,996.63
2022-12-16T08:59:24.053Z,996.61
2022-12-16T09:00:24.148Z,996.66
2022-12-16T09:01:24.155Z,996.67
2022-12-16T09:02:24.250Z,996.68
2022-12-16T09:03:24.242Z,996.69
2022-12-16T09:04:24.106Z,996.71
2022-12-16T09:05:24.145Z,996.73
2022-12-16T09:06:24.126Z,996.72
2022-12-16T09:07:24.133Z,996.71
2022-12-16T09:08:24.143Z,996.68
2022-12-16T09:09:24.151Z,996.71
2022-12-16T09:10:24.248Z,996.72
2022-12-16T09:11:24.172Z,996.76
2022-12-16T09:12:24.186Z,996.74
2022-12-16T09:13:24.194Z,996.73
2022-12-16T09:14:24.205Z,996.71
2022-12-16T09:15:24.383Z,996.72
2022-12-16T09:16:24.244Z,996.78
2022-12-16T09:17:24.236Z,996.77
2022-12-16T09:18:24.245Z,996.86
2022-12-16T09:19:24.258Z,996.84
2022-12-16T09:20:24.267Z,996.88
2022-12-16T09:21:26.598Z,996.84
2022-12-16T09:22:24.287Z,996.85
2022-12-16T09:23:24.295Z,996.88
2022-12-16T09:24:24.298Z,996.89
2022-12-16T09:25:24.319Z,996.86
2022-12-16T09:26:24.343Z,996.87
2022-12-16T09:27:24.345Z,996.84
2022-12-16T09:28:24.344Z,996.88
2022-12-16T09:29:24.356Z,996.87
2022-12-16T09:30:24.368Z,996.92
2022-12-16T09:31:24.406Z,996.95
2022-12-16T09:32:24.386Z,996.89
2022-12-16T09:33:24.397Z,996.9
2022-12-16T09:34:24.410Z,996.95
2022-12-16T09:35:24.418Z,996.95
2022-12-16T09:36:24.427Z,996.99
2022-12-16T09:37:24.464Z,997.04
2022-12-16T09:38:24.445Z,997.04
2022-12-16T09:39:24.459Z,997.05
2022-12-16T09:40:24.470Z,997.05
2022-12-16T09:41:24.480Z,997.06
2022-12-16T09:42:24.487Z,997.03
2022-12-16T09:43:24.496Z,997.07
2022-12-16T09:44:24.507Z,997.05
2022-12-16T09:45:24.521Z,997.07
2022-12-16T09:46:24.635Z,997.05
2022-12-16T09:47:24.540Z,997.11
2022-12-16T09:48:24.555Z,997.09
2022-12-16T09:49:24.560Z,997.09
2022-12-16T09:50:24.565Z,997.14
2022-12-16T09:51:24.579Z,997.09
2022-12-16T09:52:24.590Z,997.12
2022-12-16T09:53:24.641Z,997.11
2022-12-16T09:54:25.006Z,997.13
2022-12-16T09:55:24.609Z,997.18
2022-12-16T09:56:24.627Z,997.16
2022-12-16T09:57:24.637Z,997.17
2022-12-16T09:58:24.646Z,997.18
2022-12-16T09:59:24.659Z,997.12
2022-12-16T10:00:24.668Z,997.15
2022-12-16T10:01:24.850Z,997.17
2022-12-16T10:02:24.855Z,997.18
2022-12-16T10:03:24.816Z,997.18
2022-12-16T10:04:24.764Z,997.2
2022-12-16T10:05:24.739Z,997.17
2022-12-16T10:06:24.735Z,997.2
2022-12-16T10:07:24.737Z,997.18
2022-12-16T10:08:24.745Z,997.22
2022-12-16T10:09:24.785Z,997.21
2022-12-16T10:10:24.771Z,997.18
2022-12-16T10:11:24.776Z,997.23
2022-12-16T10:12:24.792Z,997.2
2022-12-16T10:13:24.799Z,997.21
2022-12-16T10:14:24.811Z,997.21
2022-12-16T10:15:24.818Z,997.2
2022-12-16T10:16:24.855Z,997.21
2022-12-16T10:17:24.838Z,997.2
2022-12-16T10:18:25.005Z,997.24
2022-12-16T10:19:24.860Z,997.21
2022-12-16T10:20:24.875Z,997.22
2022-12-16T10:21:24.872Z,997.24
2022-12-16T10:22:24.890Z,997.25
2022-12-16T10:23:24.904Z,997.24
2022-12-16T10:24:24.913Z,997.25
2022-12-16T10:25:25.569Z,997.22
2022-12-16T10:26:24.932Z,997.25
2022-12-16T10:27:24.939Z,997.2
2022-12-16T10:28:24.949Z,997.22
2022-12-16T10:29:24.956Z,997.25
2022-12-16T10:30:24.969Z,997.27
2022-12-16T10:31:29.718Z,997.25
2022-12-16T10:32:24.990Z,997.31
2022-12-16T10:33:25.005Z,997.29
2022-12-16T10:34:25.013Z,997.31
2022-12-16T10:35:25.023Z,997.35
2022-12-16T10:36:25.029Z,997.33
2022-12-16T10:37:25.040Z,997.36
2022-12-16T10:38:25.055Z,997.35
2022-12-16T10:39:25.058Z,997.35
2022-12-16T10:40:25.069Z,997.33
2022-12-16T10:41:25.104Z,997.33
2022-12-16T10:42:25.092Z,997.32
2022-12-16T10:43:25.101Z,997.39
2022-12-16T10:44:25.105Z,997.36
2022-12-16T10:45:25.118Z,997.41
2022-12-16T10:46:25.197Z,997.37
2022-12-16T10:47:25.139Z,997.41
2022-12-16T10:48:25.153Z,997.38
2022-12-16T10:49:25.188Z,997.37
2022-12-16T10:50:25.184Z,997.38
2022-12-16T10:51:25.178Z,997.37
2022-12-16T10:52:25.188Z,997.34
2022-12-16T10:53:25.199Z,997.37
2022-12-16T10:54:25.264Z,997.32
2022-12-16T10:55:25.221Z,997.31
2022-12-16T10:56:25.237Z,997.34
2022-12-16T10:57:25.278Z,997.29
2022-12-16T10:58:25.254Z,997.33
2022-12-16T10:59:25.266Z,997.34
2022-12-16T11:00:25.274Z,997.32
2022-12-16T11:01:25.390Z,997.26
2022-12-16T11:02:25.514Z,997.35
2022-12-16T11:03:25.440Z,997.38
2022-12-16T11:04:25.359Z,997.39
2022-12-16T11:05:25.330Z,997.38
2022-12-16T11:06:25.333Z,997.4
2022-12-16T11:07:25.345Z,997.37
2022-12-16T11:08:25.357Z,997.36
2022-12-16T11:09:25.374Z,997.41
2022-12-16T11:10:25.373Z,997.41
2022-12-16T11:11:25.386Z,997.41
2022-12-16T11:12:25.391Z,997.41
2022-12-16T11:13:25.433Z,997.43
2022-12-16T11:14:25.417Z,997.42
2022-12-16T11:15:29.580Z,997.42
2022-12-16T11:16:25.505Z,997.48
2022-12-16T11:17:25.446Z,997.46
2022-12-16T11:18:25.454Z,997.49
2022-12-16T11:19:25.467Z,997.48
2022-12-16T11:20:25.484Z,997.49
2022-12-16T11:21:25.489Z,997.52
2022-12-16T11:22:25.497Z,997.53
2022-12-16T11:23:25.511Z,997.45
2022-12-16T11:24:25.520Z,997.5
2022-12-16T11:25:25.532Z,997.48
2022-12-16T11:26:25.538Z,997.52
2022-12-16T11:27:25.551Z,997.49
2022-12-16T11:28:25.559Z,997.51
2022-12-16T11:29:25.600Z,997.5
2022-12-16T11:30:25.580Z,997.53
2022-12-16T11:31:25.709Z,997.54
2022-12-16T11:32:25.593Z,997.54
2022-12-16T11:33:25.854Z,997.54
2022-12-16T11:34:25.618Z,997.56
2022-12-16T11:35:25.774Z,997.55
2022-12-16T11:36:25.641Z,997.54
2022-12-16T11:37:25.651Z,997.55
2022-12-16T11:38:25.659Z,997.51
2022-12-16T11:39:25.669Z,997.54
2022-12-16T11:40:25.680Z,997.56
2022-12-16T11:41:25.695Z,997.53
2022-12-16T11:42:25.700Z,997.58
2022-12-16T11:43:25.718Z,997.56
2022-12-16T11:44:25.721Z,997.56
2022-12-16T11:45:25.763Z,997.58
2022-12-16T11:46:25.811Z,997.57
2022-12-16T11:47:25.753Z,997.57
2022-12-16T11:48:25.764Z,997.57
2022-12-16T11:49:25.864Z,997.54
2022-12-16T11:50:25.782Z,997.54
2022-12-16T11:51:25.792Z,997.54
2022-12-16T11:52:36.642Z,997.53
2022-12-16T11:53:25.812Z,997.55
2022-12-16T11:54:26.278Z,997.55
2022-12-16T11:55:41.963Z,997.51
2022-12-16T11:56:25.885Z,997.55
2022-12-16T11:57:25.859Z,997.54
2022-12-16T11:58:25.866Z,997.57
2022-12-16T11:59:25.879Z,997.59
2022-12-16T12:00:25.887Z,997.54
2022-12-16T12:01:25.960Z,997.58
2022-12-16T12:02:26.019Z,997.56
2022-12-16T12:03:26.087Z,997.62
2022-12-16T12:04:25.999Z,997.56
2022-12-16T12:05:25.948Z,997.62
2022-12-16T12:06:25.950Z,997.65
2022-12-16T12:07:25.955Z,997.64
2022-12-16T12:08:25.982Z,997.63
2022-12-16T12:09:25.984Z,997.64
2022-12-16T12:10:25.992Z,997.65
2022-12-16T12:11:25.998Z,997.69
2022-12-16T12:12:26.013Z,997.7
2022-12-16T12:13:26.020Z,997.73
2022-12-16T12:14:26.047Z,997.7
2022-12-16T12:15:26.047Z,997.73
2022-12-16T12:16:26.134Z,997.77
2022-12-16T12:17:26.088Z,997.77
2022-12-16T12:18:26.074Z,997.82
2022-12-16T12:19:26.083Z,997.79
2022-12-16T12:20:26.092Z,997.85
2022-12-16T12:21:26.103Z,997.84
2022-12-16T12:22:26.116Z,997.82
2022-12-16T12:23:26.122Z,997.81
2022-12-16T12:24:26.134Z,997.81
2022-12-16T12:25:26.143Z,997.76
2022-12-16T12:26:26.156Z,997.79
2022-12-16T12:27:26.164Z,997.84
2022-12-16T12:28:26.182Z,997.84
2022-12-16T12:29:26.187Z,997.81
2022-12-16T12:30:26.199Z,997.8
2022-12-16T12:31:26.235Z,997.79
2022-12-16T12:32:26.216Z,997.84
2022-12-16T12:33:26.252Z,997.84
2022-12-16T12:34:26.238Z,997.84
2022-12-16T12:35:26.252Z,997.85
2022-12-16T12:36:26.259Z,997.86
2022-12-16T12:37:26.267Z,997.91
2022-12-16T12:38:26.283Z,997.91
2022-12-16T12:39:26.290Z,997.88
2022-12-16T12:40:26.306Z,997.89
2022-12-16T12:41:26.310Z,997.93
2022-12-16T12:42:26.322Z,997.95
2022-12-16T12:43:26.332Z,997.93
2022-12-16T12:44:36.379Z,997.95
2022-12-16T12:45:26.357Z,997.97
2022-12-16T12:46:26.445Z,997.98
2022-12-16T12:47:26.379Z,997.99
2022-12-16T12:48:26.382Z,997.94
2022-12-16T12:49:26.422Z,997.98
2022-12-16T12:50:26.405Z,997.94
2022-12-16T12:51:26.416Z,997.98
2022-12-16T12:52:26.430Z,997.99
2022-12-16T12:53:26.440Z,998
2022-12-16T12:54:31.569Z,998.01
2022-12-16T12:55:26.459Z,998.05
2022-12-16T12:56:26.466Z,998.08
2022-12-16T12:57:26.479Z,998.1
2022-12-16T12:58:26.494Z,998.1
2022-12-16T12:59:26.500Z,998.09
2022-12-16T13:00:26.508Z,998.18
2022-12-16T13:01:26.666Z,998.13
2022-12-16T13:02:26.656Z,998.14
2022-12-16T13:03:26.611Z,998.16
2022-12-16T13:04:26.551Z,998.16
2022-12-16T13:05:26.585Z,998.15
2022-12-16T13:06:26.576Z,998.12
2022-12-16T13:07:26.584Z,998.16
2022-12-16T13:08:26.591Z,998.1
2022-12-16T13:09:26.603Z,998.14
2022-12-16T13:10:26.616Z,998.19
2022-12-16T13:11:30.013Z,998.17
2022-12-16T13:12:26.633Z,998.13
2022-12-16T13:13:26.652Z,998.18
2022-12-16T13:14:26.655Z,998.18
2022-12-16T13:15:26.667Z,998.18
2022-12-16T13:16:26.722Z,998.13
2022-12-16T13:17:26.686Z,998.16
2022-12-16T13:18:26.697Z,998.15